Mercer County Airport Bluefield US
ICAO: KBLF
IATA: BLF
Category: Medium
Scheduled Services: Yes

Elevation: 2857 ft
TransAlt. 18000 ft.

Airport Communications:
ASOS:132.725
INDIANAPOLIS CNTR:126.575
CTAF:122.9
ELKINS RDO:122.2

KBLF Zoom In..

Runways:

(A) RW 05 length 4743 ft width 100 ft
---- / hdg 49

(B) RW 23 length 4743 ft width 100 ft
ILS 109.50 / hdg 229

Location; KBLF
Day. 21 / Time. 14.52 Zulu
* Altimeter: 30.26
* Temperature: 24° c. 75.2°f.
* Wind from: VRB° Speed 04 kn.
Dewpoint: 18° c.
Visibility: 10 Statute Miles.
Clouds: Few 2700 ft.

KBLF 211452Z AUTO VRB04KT 10SM FEW027 24/18 A3026 RMK AO2 SLP211 T02390178 50001


Wind From VRB°
Speed 04 kn.

 
 
jpsmedia.com for Web Design SOUNDCLOUD worldairports.se 2018   terms of use